createdAt,value
2018-04-25T00:01:07.008Z,95140.02
2018-04-25T00:03:33.344Z,95126.76
2018-04-25T00:05:59.684Z,95135.44
2018-04-25T00:08:26.041Z,95129.95
2018-04-25T00:10:52.374Z,95133.35
2018-04-25T00:13:18.688Z,95139.70
2018-04-25T00:15:45.018Z,95142.94
2018-04-25T00:18:11.365Z,95138.08
2018-04-25T00:20:37.697Z,95151.73
2018-04-25T00:23:04.094Z,95144.36
2018-04-25T00:25:30.454Z,95147.74
2018-04-25T00:27:56.809Z,95147.05
2018-04-25T00:30:23.139Z,95152.05
2018-04-25T00:32:49.528Z,95153.09
2018-04-25T00:35:15.849Z,95163.84
2018-04-25T00:37:42.185Z,95160.37
2018-04-25T00:40:15.711Z,95163.67
2018-04-25T00:42:42.026Z,95166.72
2018-04-25T00:45:08.398Z,95164.27
2018-04-25T00:47:34.751Z,95164.22
2018-04-25T00:50:01.068Z,95167.13
2018-04-25T00:52:27.387Z,95158.75
2018-04-25T00:54:53.709Z,95158.23
2018-04-25T00:57:20.029Z,95152.13
2018-04-25T00:59:46.376Z,95163.80
2018-04-25T01:02:12.692Z,95158.30
2018-04-25T01:04:39.121Z,95154.94
2018-04-25T01:07:05.515Z,95161.41
2018-04-25T01:09:31.872Z,95155.88
2018-04-25T01:11:58.264Z,95145.63
2018-04-25T01:14:24.749Z,95154.09
2018-04-25T01:16:51.075Z,95151.64
2018-04-25T01:19:17.436Z,95145.38
2018-04-25T01:21:43.766Z,95139.64
2018-04-25T01:24:10.195Z,95152.17
2018-04-25T01:26:36.541Z,95148.47
2018-04-25T01:29:02.920Z,95130.67
2018-04-25T01:31:29.248Z,95138.42
2018-04-25T01:33:55.571Z,95144.48
2018-04-25T01:36:21.895Z,95149.91
2018-04-25T01:38:48.241Z,95148.84
2018-04-25T01:41:14.558Z,95142.22
2018-04-25T01:43:40.924Z,95137.75
2018-04-25T01:46:07.284Z,95137.42
2018-04-25T01:48:33.638Z,95137.55
2018-04-25T01:51:00.000Z,95138.09
2018-04-25T01:53:26.353Z,95137.82
2018-04-25T01:55:52.720Z,95143.52
2018-04-25T01:58:19.052Z,95142.45
2018-04-25T02:00:45.465Z,95142.36
2018-04-25T02:03:11.796Z,95149.55
2018-04-25T02:05:38.132Z,95149.03
2018-04-25T02:08:04.528Z,95150.28
2018-04-25T02:10:30.964Z,95146.41
2018-04-25T02:12:57.292Z,95144.47
2018-04-25T02:15:23.628Z,95144.58
2018-04-25T02:17:49.963Z,95140.53
2018-04-25T02:20:16.317Z,95139.00
2018-04-25T02:22:42.761Z,95149.80
2018-04-25T02:25:09.222Z,95146.16
2018-04-25T02:27:35.639Z,95148.58
2018-04-25T02:30:02.283Z,95146.27
2018-04-25T02:32:28.620Z,95138.31
2018-04-25T02:34:55.135Z,95149.22
2018-04-25T02:37:21.503Z,95148.41
2018-04-25T02:39:47.858Z,95129.20
2018-04-25T02:42:14.183Z,95150.45
2018-04-25T02:44:40.590Z,95153.09
2018-04-25T02:47:07.032Z,95139.62
2018-04-25T02:49:33.404Z,95151.11
2018-04-25T02:51:59.806Z,95155.30
2018-04-25T02:54:26.163Z,95153.30
2018-04-25T02:56:54.090Z,95141.77
2018-04-25T02:59:20.633Z,95143.02
2018-04-25T03:01:46.994Z,95155.95
2018-04-25T03:04:13.576Z,95158.76
2018-04-25T03:06:40.010Z,95157.98
2018-04-25T03:09:06.402Z,95163.58
2018-04-25T03:11:32.747Z,95160.69
2018-04-25T03:13:59.162Z,95161.98
2018-04-25T03:16:25.529Z,95162.81
2018-04-25T03:18:51.896Z,95161.57
2018-04-25T03:21:18.237Z,95162.81
2018-04-25T03:23:44.618Z,95157.84
2018-04-25T03:26:11.018Z,95155.95
2018-04-25T03:28:37.351Z,95155.84
2018-04-25T03:31:03.740Z,95159.52
2018-04-25T03:33:30.064Z,95155.42
2018-04-25T03:35:56.556Z,95162.57
2018-04-25T03:38:23.012Z,95158.88
2018-04-25T03:43:21.747Z,95162.91
2018-04-25T03:45:48.137Z,95164.80
2018-04-25T03:48:14.469Z,95169.49
2018-04-25T03:50:40.841Z,95163.69
2018-04-25T03:53:07.331Z,95171.95
2018-04-25T03:55:33.669Z,95168.00
2018-04-25T03:57:59.996Z,95175.64
2018-04-25T04:00:26.334Z,95176.92
2018-04-25T04:02:52.673Z,95182.03
2018-04-25T04:05:19.086Z,95179.31
2018-04-25T04:07:45.430Z,95186.58
2018-04-25T04:10:12.036Z,95190.34
2018-04-25T04:12:38.484Z,95192.73
2018-04-25T04:15:04.897Z,95194.73
2018-04-25T04:17:31.290Z,95192.89
2018-04-25T04:19:57.636Z,95189.86
2018-04-25T04:22:24.080Z,95196.81
2018-04-25T04:24:50.545Z,95189.88
2018-04-25T04:27:16.879Z,95186.23
2018-04-25T04:29:43.283Z,95186.70
2018-04-25T04:32:09.895Z,95191.95
2018-04-25T04:34:36.225Z,95193.44
2018-04-25T04:37:02.568Z,95203.50
2018-04-25T04:39:28.969Z,95197.80
2018-04-25T04:41:55.353Z,95194.02
2018-04-25T04:44:21.876Z,95206.02
2018-04-25T04:46:49.512Z,95203.61
2018-04-25T04:49:15.900Z,95208.66
2018-04-25T04:51:42.212Z,95208.05
2018-04-25T04:54:08.533Z,95206.02
2018-04-25T04:56:35.131Z,95204.59
2018-04-25T04:59:01.583Z,95205.95
2018-04-25T05:01:28.067Z,95197.56
2018-04-25T05:03:54.571Z,95212.72
2018-04-25T05:06:20.968Z,95207.45
2018-04-25T05:08:47.419Z,95204.14
2018-04-25T05:11:13.805Z,95211.03
2018-04-25T05:13:40.280Z,95206.06
2018-04-25T05:16:06.682Z,95205.59
2018-04-25T05:18:33.100Z,95205.52
2018-04-25T05:20:59.474Z,95213.23
2018-04-25T05:23:25.815Z,95211.18
2018-04-25T05:25:52.226Z,95213.92
2018-04-25T05:28:18.564Z,95210.78
2018-04-25T05:30:44.909Z,95218.38
2018-04-25T05:33:11.242Z,95220.02
2018-04-25T05:35:37.616Z,95220.34
2018-04-25T05:38:04.000Z,95217.13
2018-04-25T05:40:30.477Z,95222.30
2018-04-25T05:42:56.985Z,95234.78
2018-04-25T05:45:23.565Z,95210.69
2018-04-25T05:47:50.092Z,95226.31
2018-04-25T05:50:16.683Z,95215.05
2018-04-25T05:52:43.123Z,95218.91
2018-04-25T05:55:09.568Z,95229.77
2018-04-25T05:57:35.935Z,95234.33
2018-04-25T06:00:03.444Z,95232.16
2018-04-25T06:02:29.869Z,95243.59
2018-04-25T06:04:56.296Z,95231.48
2018-04-25T06:07:23.058Z,95221.20
2018-04-25T06:09:49.534Z,95242.31
2018-04-25T06:12:15.890Z,95246.40
2018-04-25T06:14:42.375Z,95237.03
2018-04-25T06:17:08.850Z,95246.03
2018-04-25T06:19:35.565Z,95208.02
2018-04-25T06:22:01.981Z,95238.06
2018-04-25T06:24:28.513Z,95234.61
2018-04-25T06:26:54.932Z,95232.95
2018-04-25T06:29:21.553Z,95243.22
2018-04-25T06:31:47.906Z,95225.43
2018-04-25T06:34:14.379Z,95243.38
2018-04-25T06:36:40.756Z,95232.37
2018-04-25T06:39:07.139Z,95234.53
2018-04-25T06:41:33.510Z,95235.09
2018-04-25T06:43:59.976Z,95237.69
2018-04-25T06:46:26.380Z,95222.13
2018-04-25T06:48:52.735Z,95229.09
2018-04-25T06:51:19.181Z,95232.41
2018-04-25T06:53:45.649Z,95219.58
2018-04-25T06:56:12.280Z,95230.33
2018-04-25T06:58:38.906Z,95231.05
2018-04-25T07:01:05.531Z,95225.01
2018-04-25T07:03:31.940Z,95233.52
2018-04-25T07:05:58.426Z,95232.66
2018-04-25T07:08:24.869Z,95228.52
2018-04-25T07:10:51.239Z,95238.17
2018-04-25T07:13:17.808Z,95234.17
2018-04-25T07:15:44.317Z,95239.23
2018-04-25T07:18:10.783Z,95229.43
2018-04-25T07:20:37.445Z,95248.94
2018-04-25T07:23:03.940Z,95243.61
2018-04-25T07:25:30.600Z,95244.62
2018-04-25T07:27:57.189Z,95240.80
2018-04-25T07:30:23.657Z,95244.73
2018-04-25T07:32:50.358Z,95237.87
2018-04-25T07:35:16.707Z,95241.91
2018-04-25T07:37:43.120Z,95248.91
2018-04-25T07:40:09.577Z,95253.53
2018-04-25T07:42:35.915Z,95248.03
2018-04-25T07:45:02.383Z,95231.45
2018-04-25T07:47:28.756Z,95234.45
2018-04-25T07:49:55.308Z,95235.15
2018-04-25T07:52:21.951Z,95242.44
2018-04-25T07:54:48.508Z,95239.47
2018-04-25T07:57:14.929Z,95221.95
2018-04-25T07:59:41.352Z,95234.06
2018-04-25T08:02:07.921Z,95227.95
2018-04-25T08:04:34.415Z,95238.85
2018-04-25T08:07:00.856Z,95234.91
2018-04-25T08:09:27.376Z,95219.84
2018-04-25T08:11:53.837Z,95222.67
2018-04-25T08:14:20.518Z,95220.70
2018-04-25T08:16:46.892Z,95212.30
2018-04-25T08:19:13.449Z,95216.43
2018-04-25T08:21:40.029Z,95219.14
2018-04-25T08:24:06.549Z,95217.22
2018-04-25T08:26:32.923Z,95220.30
2018-04-25T08:28:59.491Z,95209.98
2018-04-25T08:31:26.084Z,95201.31
2018-04-25T08:33:52.520Z,95209.73
2018-04-25T08:36:19.023Z,95204.48
2018-04-25T08:38:45.537Z,95198.45
2018-04-25T08:41:12.067Z,95201.49
2018-04-25T08:43:38.469Z,95205.25
2018-04-25T08:46:05.062Z,95189.80
2018-04-25T08:48:31.538Z,95204.84
2018-04-25T08:50:58.151Z,95184.33
2018-04-25T08:53:24.743Z,95195.84
2018-04-25T08:55:51.116Z,95187.34
2018-04-25T09:00:50.099Z,95182.44
2018-04-25T09:03:16.865Z,95180.91
2018-04-25T09:05:43.411Z,95180.80
2018-04-25T09:08:09.812Z,95178.98
2018-04-25T09:10:36.150Z,95182.90
2018-04-25T09:13:02.532Z,95178.14
2018-04-25T09:15:28.908Z,95157.86
2018-04-25T09:17:55.305Z,95174.94
2018-04-25T09:20:21.642Z,95171.99
2018-04-25T09:22:48.021Z,95163.20
2018-04-25T09:25:14.507Z,95154.89
2018-04-25T09:27:40.833Z,95149.94
2018-04-25T09:30:07.212Z,95150.55
2018-04-25T09:32:33.553Z,95148.90
2018-04-25T09:34:59.877Z,95138.76
2018-04-25T09:37:26.231Z,95143.67
2018-04-25T09:39:52.549Z,95146.39
2018-04-25T09:42:18.892Z,95136.04
2018-04-25T09:44:45.305Z,95137.33
2018-04-25T09:47:11.776Z,95120.45
2018-04-25T09:49:38.127Z,95126.91
2018-04-25T09:52:04.513Z,95125.14
2018-04-25T09:54:30.955Z,95131.60
2018-04-25T09:56:57.321Z,95124.09
2018-04-25T09:59:23.685Z,95120.58
2018-04-25T10:01:50.021Z,95109.05
2018-04-25T10:04:16.423Z,95117.45
2018-04-25T10:06:42.876Z,95110.13
2018-04-25T10:09:09.324Z,95086.55
2018-04-25T10:11:35.957Z,95102.31
2018-04-25T10:14:02.326Z,95098.38
2018-04-25T10:16:28.676Z,95081.89
2018-04-25T10:18:55.092Z,95087.09
2018-04-25T10:21:21.490Z,95093.01
2018-04-25T10:23:47.966Z,95094.66
2018-04-25T10:26:14.336Z,95088.47
2018-04-25T10:28:40.731Z,95074.50
2018-04-25T10:31:07.111Z,95082.73
2018-04-25T10:33:33.452Z,95087.37
2018-04-25T10:35:59.811Z,95079.94
2018-04-25T10:38:26.987Z,95062.09
2018-04-25T10:40:53.377Z,95052.98
2018-04-25T10:43:19.692Z,95065.17
2018-04-25T10:45:46.077Z,95059.56
2018-04-25T10:48:12.471Z,95061.23
2018-04-25T10:50:38.853Z,95034.52
2018-04-25T10:53:05.271Z,95039.20
2018-04-25T10:55:31.680Z,95050.23
2018-04-25T10:57:58.062Z,95049.29
2018-04-25T11:00:24.451Z,95054.41
2018-04-25T11:02:50.845Z,95047.98
2018-04-25T11:05:17.289Z,95053.11
2018-04-25T11:07:43.627Z,95032.94
2018-04-25T11:10:10.110Z,95043.59
2018-04-25T11:12:36.468Z,95046.07
2018-04-25T11:15:02.836Z,95035.28
2018-04-25T11:17:29.162Z,95030.84
2018-04-25T11:19:55.526Z,95027.20
2018-04-25T11:22:21.927Z,95024.19
2018-04-25T11:24:48.311Z,95027.49
2018-04-25T11:27:14.680Z,95015.88
2018-04-25T11:29:41.033Z,95021.32
2018-04-25T11:32:07.466Z,95017.09
2018-04-25T11:34:33.949Z,95012.06
2018-04-25T11:37:00.356Z,95006.68
2018-04-25T11:39:26.823Z,95004.97
2018-04-25T11:41:53.277Z,94990.34
2018-04-25T11:44:19.648Z,95005.58
2018-04-25T11:46:46.013Z,95000.81
2018-04-25T11:49:12.388Z,94998.95
2018-04-25T11:51:38.815Z,94980.57
2018-04-25T11:54:05.181Z,94964.90
2018-04-25T11:56:31.552Z,94975.55
2018-04-25T11:58:57.953Z,94976.84
2018-04-25T12:01:24.485Z,94980.83
2018-04-25T12:03:50.860Z,94972.45
2018-04-25T12:06:17.319Z,94956.47
2018-04-25T12:08:43.810Z,94972.20
2018-04-25T12:11:10.288Z,94935.87
2018-04-25T12:13:36.651Z,94943.45
2018-04-25T12:16:03.020Z,94952.27
2018-04-25T12:18:29.396Z,94946.92
2018-04-25T12:20:55.742Z,94948.41
2018-04-25T12:23:22.874Z,94938.20
2018-04-25T12:25:49.281Z,94924.47
2018-04-25T12:28:15.647Z,94934.26
2018-04-25T12:30:42.013Z,94916.66
2018-04-25T12:33:08.404Z,94922.92
2018-04-25T12:35:34.804Z,94907.67
2018-04-25T12:38:01.229Z,94917.68
2018-04-25T12:40:27.563Z,94908.30
2018-04-25T12:42:53.943Z,94917.70
2018-04-25T12:45:20.404Z,94909.59
2018-04-25T12:47:46.797Z,94917.11
2018-04-25T12:50:13.289Z,94908.55
2018-04-25T12:52:39.637Z,94906.00
2018-04-25T12:55:06.684Z,94910.23
2018-04-25T12:57:33.061Z,94901.80
2018-04-25T12:59:59.516Z,94910.01
2018-04-25T13:02:26.227Z,94895.73
2018-04-25T13:04:52.600Z,94899.65
2018-04-25T13:07:19.126Z,94901.20
2018-04-25T13:09:45.578Z,94906.50
2018-04-25T13:12:12.185Z,94881.81
2018-04-25T13:14:38.661Z,94901.73
2018-04-25T13:17:05.098Z,94892.30
2018-04-25T13:19:31.618Z,94892.52
2018-04-25T13:21:58.046Z,94891.72
2018-04-25T13:24:24.561Z,94898.98
2018-04-25T13:26:50.976Z,94887.94
2018-04-25T13:29:17.420Z,94869.77
2018-04-25T13:31:43.867Z,94875.44
2018-04-25T13:34:10.362Z,94887.98
2018-04-25T13:36:37.693Z,94888.20
2018-04-25T13:39:04.110Z,94871.06
2018-04-25T13:41:30.863Z,94876.23
2018-04-25T13:43:57.662Z,94871.77
2018-04-25T13:46:24.272Z,94873.10
2018-04-25T13:48:50.819Z,94887.80
2018-04-25T13:51:17.447Z,94872.45
2018-04-25T13:53:44.195Z,94883.05
2018-04-25T13:56:10.576Z,94886.52
2018-04-25T13:58:36.947Z,94875.86
2018-04-25T14:01:03.371Z,94866.40
2018-04-25T14:03:29.769Z,94874.23
2018-04-25T14:05:56.180Z,94866.68
2018-04-25T14:08:22.649Z,94868.44
2018-04-25T14:10:49.114Z,94868.19
2018-04-25T14:13:15.541Z,94873.31
2018-04-25T14:15:41.967Z,94860.54
2018-04-25T14:18:08.430Z,94867.72
2018-04-25T14:20:34.859Z,94865.52
2018-04-25T14:23:01.303Z,94864.09
2018-04-25T14:25:27.776Z,94862.82
2018-04-25T14:27:54.130Z,94871.72
2018-04-25T14:30:20.552Z,94848.87
2018-04-25T14:32:46.944Z,94855.03
2018-04-25T14:35:13.661Z,94861.78
2018-04-25T14:37:40.016Z,94862.48
2018-04-25T14:40:06.563Z,94859.11
2018-04-25T14:42:32.899Z,94873.86
2018-04-25T14:44:59.237Z,94865.13
2018-04-25T14:47:25.608Z,94867.62
2018-04-25T14:49:52.012Z,94869.39
2018-04-25T14:52:18.392Z,94865.04
2018-04-25T14:54:45.150Z,94871.19
2018-04-25T14:57:11.633Z,94876.41
2018-04-25T14:59:38.042Z,94866.88
2018-04-25T15:02:04.495Z,94875.91
2018-04-25T15:04:30.914Z,94873.85
2018-04-25T15:06:57.303Z,94867.95
2018-04-25T15:09:23.776Z,94868.77
2018-04-25T15:11:50.325Z,94841.84
2018-04-25T15:14:16.702Z,94846.67
2018-04-25T15:16:43.065Z,94854.77
2018-04-25T15:19:09.604Z,94858.42
2018-04-25T15:21:35.943Z,94856.04
2018-04-25T15:24:02.431Z,94850.52
2018-04-25T15:26:28.888Z,94847.33
2018-04-25T15:28:55.495Z,94850.90
2018-04-25T15:31:21.942Z,94851.19
2018-04-25T15:33:48.266Z,94847.92
2018-04-25T15:36:14.709Z,94842.57
2018-04-25T15:38:41.193Z,94852.11
2018-04-25T15:41:07.632Z,94847.30
2018-04-25T15:43:34.055Z,94843.85
2018-04-25T15:46:00.459Z,94837.89
2018-04-25T15:48:26.833Z,94831.52
2018-04-25T15:50:53.230Z,94830.89
2018-04-25T15:53:19.769Z,94828.25
2018-04-25T15:55:46.175Z,94834.31
2018-04-25T15:58:12.580Z,94827.72
2018-04-25T16:00:39.009Z,94839.00
2018-04-25T16:03:05.492Z,94838.04
2018-04-25T16:05:32.008Z,94827.66
2018-04-25T16:07:58.376Z,94828.17
2018-04-25T16:10:24.798Z,94825.58
2018-04-25T16:12:51.238Z,94815.11
2018-04-25T16:15:17.606Z,94832.22
2018-04-25T16:17:43.969Z,94826.56
2018-04-25T16:20:10.332Z,94821.95
2018-04-25T16:22:36.705Z,94836.53
2018-04-25T16:25:03.092Z,94834.08
2018-04-25T16:27:29.452Z,94835.65
2018-04-25T16:29:55.830Z,94836.76
2018-04-25T16:32:22.198Z,94836.77
2018-04-25T16:34:48.536Z,94839.09
2018-04-25T16:37:14.951Z,94833.92
2018-04-25T16:39:41.332Z,94837.14
2018-04-25T16:42:07.697Z,94838.84
2018-04-25T16:44:34.117Z,94840.39
2018-04-25T16:47:00.462Z,94840.92
2018-04-25T16:49:26.921Z,94845.06
2018-04-25T16:51:53.245Z,94844.08
2018-04-25T16:54:19.616Z,94842.09
2018-04-25T16:56:46.250Z,94839.25
2018-04-25T16:59:12.612Z,94845.50
2018-04-25T17:01:39.026Z,94844.62
2018-04-25T17:04:05.412Z,94846.52
2018-04-25T17:06:31.771Z,94847.17
2018-04-25T17:08:58.124Z,94830.20
2018-04-25T17:11:24.448Z,94849.63
2018-04-25T17:13:50.804Z,94858.97
2018-04-25T17:16:17.168Z,94852.40
2018-04-25T17:18:43.550Z,94862.19
2018-04-25T17:21:09.893Z,94863.02
2018-04-25T17:23:36.250Z,94869.52
2018-04-25T17:26:02.633Z,94876.12
2018-04-25T17:28:28.950Z,94871.42
2018-04-25T17:30:55.394Z,94874.83
2018-04-25T17:33:21.713Z,94880.83
2018-04-25T17:35:48.075Z,94877.64
2018-04-25T17:38:14.448Z,94868.83
2018-04-25T17:40:40.810Z,94873.82
2018-04-25T17:43:07.144Z,94870.16
2018-04-25T17:45:33.492Z,94866.66
2018-04-25T17:47:59.808Z,94880.10
2018-04-25T17:50:26.131Z,94877.64
2018-04-25T17:52:52.478Z,94882.18
2018-04-25T17:55:18.878Z,94893.52
2018-04-25T17:57:45.201Z,94897.94
2018-04-25T18:00:11.571Z,94903.72
2018-04-25T18:02:37.951Z,94903.47
2018-04-25T18:05:04.289Z,94909.05
2018-04-25T18:07:30.597Z,94900.94
2018-04-25T18:09:56.912Z,94903.23
2018-04-25T18:12:23.279Z,94890.20
2018-04-25T18:14:49.615Z,94900.66
2018-04-25T18:17:15.981Z,94903.47
2018-04-25T18:19:42.308Z,94910.25
2018-04-25T18:22:08.613Z,94918.56
2018-04-25T18:24:34.945Z,94929.25
2018-04-25T18:27:01.348Z,94935.13
2018-04-25T18:29:27.679Z,94925.34
2018-04-25T18:31:54.080Z,94937.66
2018-04-25T18:34:20.437Z,94937.88
2018-04-25T18:36:46.753Z,94945.28
2018-04-25T18:39:13.075Z,94944.73
2018-04-25T18:41:39.447Z,94932.48
2018-04-25T18:44:05.824Z,94945.48
2018-04-25T18:46:32.176Z,94947.03
2018-04-25T18:48:58.529Z,94938.05
2018-04-25T18:51:24.913Z,94949.77
2018-04-25T18:53:51.271Z,94952.84
2018-04-25T18:56:17.593Z,94941.27
2018-04-25T18:58:43.960Z,94947.32
2018-04-25T19:01:10.316Z,94958.16
2018-04-25T19:03:36.627Z,94958.57
2018-04-25T19:06:02.956Z,94952.44
2018-04-25T19:08:29.328Z,94949.66
2018-04-25T19:10:55.672Z,94940.17
2018-04-25T19:13:22.044Z,94957.00
2018-04-25T19:15:48.420Z,94958.97
2018-04-25T19:18:14.740Z,94960.95
2018-04-25T19:20:41.131Z,94942.58
2018-04-25T19:23:07.527Z,94954.06
2018-04-25T19:25:33.846Z,94961.08
2018-04-25T19:28:00.245Z,94961.16
2018-04-25T19:30:26.566Z,94965.79
2018-04-25T19:32:52.892Z,94967.50
2018-04-25T19:35:19.218Z,94970.41
2018-04-25T19:37:45.580Z,94973.28
2018-04-25T19:40:11.904Z,94970.36
2018-04-25T19:42:38.292Z,94972.45
2018-04-25T19:45:04.697Z,94973.67
2018-04-25T19:47:31.067Z,94978.25
2018-04-25T19:49:57.446Z,94974.02
2018-04-25T19:52:23.774Z,94972.79
2018-04-25T19:54:50.105Z,94967.41
2018-04-25T19:57:16.530Z,94973.05
2018-04-25T19:59:42.904Z,94965.37
2018-04-25T20:02:09.228Z,94964.25
2018-04-25T20:04:35.561Z,94965.84
2018-04-25T20:07:01.927Z,94972.78
2018-04-25T20:09:28.294Z,94976.52
2018-04-25T20:11:54.747Z,94974.28
2018-04-25T20:14:21.103Z,94980.33
2018-04-25T20:16:47.436Z,94977.73
2018-04-25T20:19:13.809Z,94976.09
2018-04-25T20:21:40.164Z,94973.72
2018-04-25T20:24:06.482Z,94978.48
2018-04-25T20:26:32.821Z,94967.41
2018-04-25T20:28:59.150Z,94982.67
2018-04-25T20:31:25.568Z,94976.48
2018-04-25T20:33:51.916Z,94980.12
2018-04-25T20:36:18.297Z,94983.52
2018-04-25T20:38:44.653Z,94988.86
2018-04-25T20:41:10.976Z,94983.59
2018-04-25T20:43:37.352Z,94976.92
2018-04-25T20:46:03.703Z,94983.85
2018-04-25T20:48:30.072Z,94992.34
2018-04-25T20:50:56.408Z,94994.69
2018-04-25T20:53:22.788Z,94991.61
2018-04-25T20:55:49.119Z,94994.31
2018-04-25T20:58:15.485Z,94986.09
2018-04-25T21:00:41.880Z,94991.55
2018-04-25T21:03:08.240Z,94993.16
2018-04-25T21:05:34.612Z,94994.58
2018-04-25T21:08:00.969Z,94991.81
2018-04-25T21:10:27.365Z,94995.45
2018-04-25T21:12:53.716Z,94996.75
2018-04-25T21:15:20.097Z,94994.99
2018-04-25T21:17:46.422Z,94992.81
2018-04-25T21:20:13.138Z,94973.70
2018-04-25T21:22:39.607Z,94986.73
2018-04-25T21:25:05.938Z,94990.82
2018-04-25T21:27:32.317Z,94994.70
2018-04-25T21:29:58.691Z,94980.66
2018-04-25T21:32:25.093Z,94987.38
2018-04-25T21:34:51.404Z,94983.24
2018-04-25T21:37:17.796Z,94982.12
2018-04-25T21:39:44.119Z,94988.00
2018-04-25T21:42:10.432Z,94987.94
2018-04-25T21:44:36.814Z,94984.80
2018-04-25T21:47:03.154Z,94990.81
2018-04-25T21:49:29.484Z,94991.17
2018-04-25T21:51:55.839Z,94992.78
2018-04-25T21:54:22.183Z,94980.13
2018-04-25T21:56:48.542Z,94984.61
2018-04-25T21:59:14.903Z,94984.11
2018-04-25T22:01:41.231Z,94992.69
2018-04-25T22:04:07.579Z,94998.31
2018-04-25T22:06:33.889Z,95006.36
2018-04-25T22:09:00.268Z,95004.87
2018-04-25T22:11:26.619Z,95001.20
2018-04-25T22:13:52.956Z,95001.92
2018-04-25T22:16:19.277Z,95006.78
2018-04-25T22:18:45.612Z,95006.44
2018-04-25T22:21:11.972Z,95010.56
2018-04-25T22:23:38.296Z,95015.37
2018-04-25T22:26:04.677Z,95009.08
2018-04-25T22:28:31.029Z,95007.89
2018-04-25T22:30:57.352Z,95009.36
2018-04-25T22:33:23.684Z,95007.19
2018-04-25T22:35:50.060Z,95006.16
2018-04-25T22:38:16.397Z,95004.75
2018-04-25T22:40:42.854Z,94987.60
2018-04-25T22:43:09.218Z,95003.72
2018-04-25T22:45:35.596Z,95006.83
2018-04-25T22:48:01.973Z,94992.82
2018-04-25T22:50:28.344Z,95003.16
2018-04-25T22:52:54.724Z,94998.00
2018-04-25T22:55:21.092Z,95001.95
2018-04-25T22:57:47.409Z,94990.44
2018-04-25T23:00:13.749Z,94990.77
2018-04-25T23:02:40.121Z,95002.02
2018-04-25T23:05:06.497Z,94994.23
2018-04-25T23:07:32.818Z,94998.61
2018-04-25T23:09:59.162Z,95000.98
2018-04-25T23:12:25.537Z,94978.77
2018-04-25T23:14:51.873Z,94992.31
2018-04-25T23:17:18.192Z,94997.01
2018-04-25T23:19:44.559Z,94993.80
2018-04-25T23:22:10.875Z,94987.56
2018-04-25T23:24:37.243Z,94989.25
2018-04-25T23:27:03.649Z,94982.87
2018-04-25T23:29:30.002Z,94974.18
2018-04-25T23:31:56.333Z,94993.86
2018-04-25T23:34:22.661Z,94984.81
2018-04-25T23:36:48.991Z,94988.59
2018-04-25T23:39:15.326Z,94980.64
2018-04-25T23:41:41.692Z,94986.00
2018-04-25T23:44:08.018Z,94975.63
2018-04-25T23:46:34.339Z,94973.92
2018-04-25T23:49:00.717Z,94975.17
2018-04-25T23:51:27.081Z,94975.53
2018-04-25T23:53:53.391Z,94981.67
2018-04-25T23:56:19.754Z,94970.20
2018-04-25T23:58:46.161Z,94971.30
